Time;durP1;ratioP1;P1;durP2;ratioP2;P2;SDS_P1;SDS_P2;PMS_P1;PMS_P2;Temp;Humidity;BMP_temperature;BMP_pressure;BME280_temperature;BME280_humidity;BME280_pressure;Samples;Min_cycle;Max_cycle;Signal;HPM_P1;HPM_P2
2022/02/20 00:02:06;;;;;;;2.72;1.85;;;;;;;;;;5043527;28;20025;-71
2022/02/20 00:04:32;;;;;;;4.30;2.10;;;;;;;;;;5043248;28;20056;-69
2022/02/20 00:06:58;;;;;;;2.40;1.40;;;;;;;;;;5045139;28;20052;-69
2022/02/20 00:09:24;;;;;;;3.90;1.42;;;;;;;;;;5027620;28;20030;-70
2022/02/20 00:11:50;;;;;;;2.33;1.20;;;;;;;;;;5031269;28;20025;-69
2022/02/20 00:14:16;;;;;;;2.80;1.00;;;;;;;;;;5035754;28;20113;-72
2022/02/20 00:16:42;;;;;;;2.78;1.45;;;;;;;;;;5040661;28;20040;-71
2022/02/20 00:19:09;;;;;;;3.65;1.25;;;;;;;;;;5044321;28;20040;-71
2022/02/20 00:21:35;;;;;;;2.78;1.38;;;;;;;;;;5025297;28;20124;-69
2022/02/20 00:24:01;;;;;;;3.53;1.42;;;;;;;;;;5043915;28;20049;-69
2022/02/20 00:26:27;;;;;;;5.78;1.42;;;;;;;;;;5044080;28;20079;-68
2022/02/20 00:28:53;;;;;;;3.30;1.40;;;;;;;;;;5043398;28;20025;-69
2022/02/20 00:31:19;;;;;;;3.20;1.08;;;;;;;;;;5042571;28;21950;-70
2022/02/20 00:33:45;;;;;;;2.78;1.50;;;;;;;;;;5043860;28;20036;-70
2022/02/20 00:36:12;;;;;;;1.80;1.05;;;;;;;;;;5043643;28;20017;-69
2022/02/20 00:38:38;;;;;;;1.60;1.17;;;;;;;;;;5043349;28;20182;-69
2022/02/20 00:41:04;;;;;;;3.13;1.55;;;;;;;;;;5043651;28;20544;-69
2022/02/20 00:43:30;;;;;;;2.95;1.48;;;;;;;;;;5043594;28;20750;-70
2022/02/20 00:45:56;;;;;;;2.70;1.30;;;;;;;;;;5042327;28;20028;-69
2022/02/20 00:48:22;;;;;;;6.43;1.40;;;;;;;;;;5029423;28;20033;-69
2022/02/20 00:50:49;;;;;;;2.42;1.30;;;;;;;;;;5024094;28;20033;-69
2022/02/20 00:53:15;;;;;;;4.28;1.45;;;;;;;;;;5021144;28;20021;-69
2022/02/20 00:55:41;;;;;;;3.33;1.48;;;;;;;;;;5022418;28;20091;-70
2022/02/20 00:58:08;;;;;;;3.83;1.60;;;;;;;;;;5023540;28;20028;-68
2022/02/20 01:00:35;;;;;;;2.92;1.40;;;;;;;;;;5028064;28;20029;-69
2022/02/20 01:03:01;;;;;;;4.03;1.40;;;;;;;;;;5040603;28;20028;-68
2022/02/20 01:05:27;;;;;;;3.70;1.50;;;;;;;;;;5040356;28;20025;-70
2022/02/20 01:07:53;;;;;;;3.30;1.58;;;;;;;;;;5042428;28;20103;-69
2022/02/20 01:10:20;;;;;;;3.97;1.75;;;;;;;;;;5042122;28;20028;-69
2022/02/20 01:12:46;;;;;;;2.67;1.77;;;;;;;;;;5042648;28;20444;-69
2022/02/20 01:15:14;;;;;;;9.55;1.30;;;;;;;;;;5041501;28;20634;-69
2022/02/20 01:17:40;;;;;;;4.65;1.30;;;;;;;;;;5037140;28;20028;-69
2022/02/20 01:20:07;;;;;;;3.90;1.30;;;;;;;;;;5025812;28;20029;-68
2022/02/20 01:22:33;;;;;;;4.18;1.70;;;;;;;;;;5045548;28;20130;-68
2022/02/20 01:24:59;;;;;;;4.18;1.45;;;;;;;;;;5045027;28;20052;-69
2022/02/20 01:27:25;;;;;;;3.25;1.60;;;;;;;;;;5027388;28;20071;-68
2022/02/20 01:29:52;;;;;;;2.97;1.48;;;;;;;;;;5043916;28;20029;-68
2022/02/20 01:32:18;;;;;;;5.10;1.52;;;;;;;;;;5033130;28;20587;-69
2022/02/20 01:34:44;;;;;;;4.45;1.50;;;;;;;;;;5025377;28;20068;-69
2022/02/20 01:37:10;;;;;;;3.80;1.30;;;;;;;;;;5025062;28;20499;-69
2022/02/20 01:39:36;;;;;;;8.48;2.00;;;;;;;;;;5025496;28;20708;-69
2022/02/20 01:42:03;;;;;;;6.90;1.75;;;;;;;;;;5023694;28;20032;-69
2022/02/20 01:44:29;;;;;;;12.77;2.33;;;;;;;;;;5025242;28;20038;-69
2022/02/20 01:47:01;;;;;;;4.85;1.63;;;;;;;;;;5029992;28;20028;-68
2022/02/20 01:49:28;;;;;;;5.20;2.00;;;;;;;;;;5045230;28;20135;-68
2022/02/20 01:51:54;;;;;;;6.13;1.85;;;;;;;;;;5045379;28;20029;-68
2022/02/20 01:54:20;;;;;;;9.02;1.95;;;;;;;;;;5045095;28;20029;-69
2022/02/20 01:56:46;;;;;;;4.13;1.92;;;;;;;;;;5043542;28;20025;-69
2022/02/20 01:59:12;;;;;;;3.00;1.60;;;;;;;;;;5044841;28;20496;-69
2022/02/20 02:01:38;;;;;;;4.97;1.40;;;;;;;;;;5044614;28;20086;-70
2022/02/20 02:04:05;;;;;;;3.85;1.65;;;;;;;;;;5045052;28;20110;-68
2022/02/20 02:06:34;;;;;;;4.05;1.60;;;;;;;;;;5048563;28;20029;-68
2022/02/20 02:09:00;;;;;;;5.15;2.00;;;;;;;;;;5033682;28;20112;-69
2022/02/20 02:11:27;;;;;;;6.85;1.70;;;;;;;;;;5038036;28;20427;-68
2022/02/20 02:13:54;;;;;;;1.80;1.17;;;;;;;;;;5048718;28;20029;-69
2022/02/20 02:16:21;;;;;;;5.15;1.58;;;;;;;;;;5049157;28;20021;-69
2022/02/20 02:18:48;;;;;;;9.68;1.70;;;;;;;;;;5048537;28;20392;-68
2022/02/20 02:21:14;;;;;;;3.97;1.45;;;;;;;;;;5039865;28;20025;-69
2022/02/20 02:23:40;;;;;;;6.38;1.95;;;;;;;;;;5035325;28;20036;-68
2022/02/20 02:26:07;;;;;;;3.83;1.65;;;;;;;;;;5034771;28;20053;-69
2022/02/20 02:28:34;;;;;;;5.22;2.22;;;;;;;;;;5031187;28;20025;-68
2022/02/20 02:31:04;;;;;;;5.93;1.70;;;;;;;;;;5029935;28;20550;-69
2022/02/20 02:33:31;;;;;;;5.22;1.55;;;;;;;;;;5033195;28;20037;-68
2022/02/20 02:35:58;;;;;;;4.45;1.35;;;;;;;;;;5032265;28;20100;-69
2022/02/20 02:38:26;;;;;;;6.95;1.55;;;;;;;;;;5032948;28;20709;-69
2022/02/20 02:40:56;;;;;;;5.25;1.80;;;;;;;;;;5037034;28;20086;-69
2022/02/20 02:43:22;;;;;;;3.95;1.40;;;;;;;;;;5043504;28;20021;-68
2022/02/20 02:45:49;;;;;;;7.40;1.45;;;;;;;;;;5034178;28;20053;-68
2022/02/20 02:48:15;;;;;;;9.52;1.90;;;;;;;;;;5032207;28;20032;-69
2022/02/20 02:50:41;;;;;;;6.47;1.80;;;;;;;;;;5033966;28;20041;-69
2022/02/20 02:53:07;;;;;;;11.43;1.98;;;;;;;;;;5033978;28;20021;-69
2022/02/20 02:55:34;;;;;;;5.50;1.23;;;;;;;;;;5033693;28;20025;-69
2022/02/20 02:58:00;;;;;;;6.65;1.52;;;;;;;;;;5036404;28;20033;-68
2022/02/20 03:00:28;;;;;;;4.38;1.33;;;;;;;;;;5036849;28;20029;-69
2022/02/20 03:02:55;;;;;;;3.22;1.20;;;;;;;;;;5031743;28;20123;-69
2022/02/20 03:05:21;;;;;;;2.92;1.30;;;;;;;;;;5033808;28;20033;-68
2022/02/20 03:07:47;;;;;;;4.53;1.95;;;;;;;;;;5033372;28;20560;-69
2022/02/20 03:10:13;;;;;;;9.15;1.85;;;;;;;;;;5033323;28;20101;-69
2022/02/20 03:12:39;;;;;;;6.68;1.80;;;;;;;;;;5034295;28;20083;-68
2022/02/20 03:15:07;;;;;;;4.45;1.50;;;;;;;;;;5034945;28;20045;-69
2022/02/20 03:17:33;;;;;;;6.22;1.77;;;;;;;;;;5031936;28;20064;-69
2022/02/20 03:20:00;;;;;;;5.80;1.88;;;;;;;;;;5034559;28;20052;-68
2022/02/20 03:22:26;;;;;;;4.40;1.00;;;;;;;;;;5033132;28;20021;-69
2022/02/20 03:24:52;;;;;;;3.95;1.40;;;;;;;;;;5015667;28;20097;-69
2022/02/20 03:27:18;;;;;;;7.47;1.55;;;;;;;;;;5032928;28;20026;-69
2022/02/20 03:29:45;;;;;;;4.03;1.70;;;;;;;;;;5036224;28;20068;-69
2022/02/20 03:32:11;;;;;;;4.20;1.50;;;;;;;;;;5033289;28;20461;-68
2022/02/20 03:34:37;;;;;;;5.57;1.40;;;;;;;;;;5030103;28;20044;-69
2022/02/20 03:37:03;;;;;;;3.70;1.38;;;;;;;;;;5032410;28;20056;-69
2022/02/20 03:39:29;;;;;;;6.05;1.45;;;;;;;;;;5033457;28;20025;-69
2022/02/20 03:41:55;;;;;;;3.47;1.30;;;;;;;;;;5037933;28;20588;-69
2022/02/20 03:44:21;;;;;;;3.78;1.40;;;;;;;;;;5036118;28;20033;-69
2022/02/20 03:46:48;;;;;;;8.70;1.65;;;;;;;;;;5032877;28;20040;-69
2022/02/20 03:49:14;;;;;;;5.93;1.95;;;;;;;;;;5031951;28;20025;-69
2022/02/20 03:51:40;;;;;;;4.03;1.67;;;;;;;;;;5033922;28;20547;-69
2022/02/20 03:54:06;;;;;;;2.58;1.48;;;;;;;;;;5035801;28;20608;-69
2022/02/20 03:56:32;;;;;;;3.38;1.40;;;;;;;;;;5035524;28;20029;-69
2022/02/20 03:58:58;;;;;;;3.40;1.50;;;;;;;;;;5028995;28;20029;-69
2022/02/20 04:01:24;;;;;;;4.90;1.60;;;;;;;;;;5027898;28;20088;-69
2022/02/20 04:03:50;;;;;;;4.50;1.80;;;;;;;;;;5030163;28;20107;-69
2022/02/20 04:06:16;;;;;;;2.47;1.38;;;;;;;;;;5032659;28;20579;-69
2022/02/20 04:08:43;;;;;;;6.15;1.67;;;;;;;;;;5032747;28;20033;-69
2022/02/20 04:11:09;;;;;;;6.15;1.70;;;;;;;;;;5022613;28;20033;-71
2022/02/20 04:13:37;;;;;;;5.13;1.60;;;;;;;;;;5032224;28;20108;-68
2022/02/20 04:16:04;;;;;;;3.25;1.20;;;;;;;;;;5031133;28;20028;-68
2022/02/20 04:18:30;;;;;;;3.65;1.60;;;;;;;;;;5032645;28;20869;-69
2022/02/20 04:20:56;;;;;;;4.97;1.35;;;;;;;;;;5032912;28;20025;-69
2022/02/20 04:23:23;;;;;;;7.03;1.48;;;;;;;;;;5032113;28;20040;-68
2022/02/20 04:25:49;;;;;;;4.85;1.58;;;;;;;;;;5031351;28;20029;-68
2022/02/20 04:28:16;;;;;;;3.40;1.33;;;;;;;;;;5029553;28;20203;-69
2022/02/20 04:30:42;;;;;;;5.00;1.65;;;;;;;;;;5030242;28;20029;-72
2022/02/20 04:33:08;;;;;;;6.68;1.50;;;;;;;;;;5030304;28;20131;-70
2022/02/20 04:35:34;;;;;;;5.43;1.52;;;;;;;;;;5031367;28;20069;-69
2022/02/20 04:38:00;;;;;;;4.10;1.30;;;;;;;;;;5032356;28;20373;-69
2022/02/20 04:40:26;;;;;;;6.97;1.50;;;;;;;;;;5030766;28;20053;-68
2022/02/20 04:42:52;;;;;;;4.13;1.60;;;;;;;;;;5028953;28;20033;-69
2022/02/20 04:45:19;;;;;;;6.47;1.58;;;;;;;;;;5032301;28;20510;-69
2022/02/20 04:47:45;;;;;;;2.67;1.30;;;;;;;;;;5029290;28;20140;-68
2022/02/20 04:50:11;;;;;;;4.53;1.50;;;;;;;;;;5031573;28;20045;-68
2022/02/20 04:52:38;;;;;;;5.40;1.70;;;;;;;;;;5029730;28;20026;-69
2022/02/20 04:55:04;;;;;;;6.30;2.17;;;;;;;;;;5031629;28;20025;-69
2022/02/20 04:57:37;;;;;;;2.45;1.40;;;;;;;;;;5036043;28;20025;-68
2022/02/20 05:00:08;;;;;;;2.67;1.27;;;;;;;;;;5033347;28;20021;-69
2022/02/20 05:02:34;;;;;;;5.57;1.50;;;;;;;;;;5030184;28;20377;-69
2022/02/20 05:05:00;;;;;;;3.83;1.73;;;;;;;;;;5030324;28;20064;-69
2022/02/20 05:07:27;;;;;;;5.43;1.40;;;;;;;;;;5031555;28;20048;-69
2022/02/20 05:09:53;;;;;;;5.55;1.52;;;;;;;;;;5029700;28;20078;-71
2022/02/20 05:12:19;;;;;;;6.15;1.50;;;;;;;;;;5026267;28;20104;-70
2022/02/20 05:14:45;;;;;;;5.53;1.45;;;;;;;;;;5028333;28;20056;-70
2022/02/20 05:17:12;;;;;;;6.90;1.58;;;;;;;;;;5030934;28;20098;-71
2022/02/20 05:19:39;;;;;;;4.40;1.60;;;;;;;;;;5031836;28;20021;-69
2022/02/20 05:22:05;;;;;;;7.43;1.88;;;;;;;;;;5028760;28;20043;-69
2022/02/20 05:24:31;;;;;;;3.45;1.67;;;;;;;;;;5027969;28;20519;-69
2022/02/20 05:26:57;;;;;;;4.75;1.60;;;;;;;;;;5028062;28;20029;-70
2022/02/20 05:29:23;;;;;;;7.97;2.58;;;;;;;;;;5031265;28;20035;-69
2022/02/20 05:31:50;;;;;;;5.82;1.48;;;;;;;;;;5030577;28;20037;-70
2022/02/20 05:34:16;;;;;;;5.60;1.55;;;;;;;;;;5028672;28;20582;-69
2022/02/20 05:36:42;;;;;;;7.22;1.90;;;;;;;;;;5027161;28;20084;-69
2022/02/20 05:39:08;;;;;;;4.53;1.52;;;;;;;;;;5028506;28;20039;-70
2022/02/20 05:41:35;;;;;;;7.72;2.25;;;;;;;;;;5034919;28;20094;-69
2022/02/20 05:44:01;;;;;;;4.75;1.42;;;;;;;;;;5027555;28;20067;-69
2022/02/20 05:46:27;;;;;;;5.22;1.70;;;;;;;;;;5029794;28;20029;-69
2022/02/20 05:48:53;;;;;;;5.13;1.52;;;;;;;;;;5030362;28;20048;-70
2022/02/20 05:51:19;;;;;;;3.42;1.58;;;;;;;;;;5029383;28;20029;-69
2022/02/20 05:53:45;;;;;;;5.03;1.75;;;;;;;;;;5026010;28;20033;-69
2022/02/20 05:56:12;;;;;;;7.78;2.08;;;;;;;;;;5027354;28;20533;-69
2022/02/20 05:58:38;;;;;;;4.70;1.50;;;;;;;;;;5028111;28;20072;-70
2022/02/20 06:01:04;;;;;;;4.25;1.70;;;;;;;;;;5025199;28;20721;-69
2022/02/20 06:03:30;;;;;;;5.97;1.92;;;;;;;;;;5027606;28;20049;-71
2022/02/20 06:05:56;;;;;;;3.78;1.75;;;;;;;;;;5030270;28;20730;-70
2022/02/20 06:08:22;;;;;;;7.38;1.70;;;;;;;;;;5020966;28;20026;-68
2022/02/20 06:10:48;;;;;;;3.40;1.80;;;;;;;;;;5028874;28;20028;-69
2022/02/20 06:13:15;;;;;;;5.57;1.80;;;;;;;;;;5030695;28;20032;-70
2022/02/20 06:15:41;;;;;;;5.75;1.48;;;;;;;;;;5021865;28;20071;-70
2022/02/20 06:18:07;;;;;;;4.88;1.92;;;;;;;;;;5030844;28;20667;-70
2022/02/20 06:20:33;;;;;;;2.47;1.58;;;;;;;;;;5028996;28;20025;-70
2022/02/20 06:22:59;;;;;;;2.85;1.52;;;;;;;;;;5026958;28;20037;-71
2022/02/20 06:25:26;;;;;;;5.95;2.10;;;;;;;;;;5025745;28;20033;-71
2022/02/20 06:27:52;;;;;;;5.55;1.60;;;;;;;;;;5027503;28;20029;-69
2022/02/20 06:30:19;;;;;;;4.97;2.40;;;;;;;;;;5027559;28;20108;-71
2022/02/20 06:32:45;;;;;;;3.25;1.83;;;;;;;;;;5029464;28;20048;-70
2022/02/20 06:35:11;;;;;;;4.90;2.45;;;;;;;;;;5030518;28;20024;-70
2022/02/20 06:37:37;;;;;;;5.90;2.13;;;;;;;;;;5028169;28;20033;-71
2022/02/20 06:40:03;;;;;;;4.43;1.92;;;;;;;;;;5027304;28;20385;-71
2022/02/20 06:42:30;;;;;;;4.90;1.80;;;;;;;;;;5027078;28;20646;-69
2022/02/20 06:44:56;;;;;;;8.05;2.20;;;;;;;;;;5030486;28;20500;-69
2022/02/20 06:47:22;;;;;;;8.57;2.10;;;;;;;;;;5032264;28;20062;-69
2022/02/20 06:49:48;;;;;;;3.67;1.67;;;;;;;;;;5026624;28;20200;-70
2022/02/20 06:52:14;;;;;;;3.55;2.10;;;;;;;;;;5025416;28;20036;-68
2022/02/20 06:54:40;;;;;;;5.40;1.50;;;;;;;;;;5032537;28;20056;-69
2022/02/20 06:57:06;;;;;;;3.80;1.90;;;;;;;;;;5036605;28;20051;-69
2022/02/20 06:59:33;;;;;;;9.93;2.53;;;;;;;;;;5035198;28;20090;-70
2022/02/20 07:01:59;;;;;;;2.38;1.45;;;;;;;;;;5037035;28;20087;-69
2022/02/20 07:04:25;;;;;;;6.20;2.08;;;;;;;;;;5031986;28;20448;-71
2022/02/20 07:06:51;;;;;;;7.25;1.90;;;;;;;;;;5033468;28;20033;-71
2022/02/20 07:09:17;;;;;;;5.47;1.75;;;;;;;;;;5035659;28;20040;-69
2022/02/20 07:11:43;;;;;;;5.45;2.13;;;;;;;;;;5034564;28;20495;-69
2022/02/20 07:14:10;;;;;;;4.57;1.90;;;;;;;;;;5032125;28;20053;-69
2022/02/20 07:16:36;;;;;;;5.15;2.03;;;;;;;;;;5037598;28;20013;-69
2022/02/20 07:19:02;;;;;;;2.97;2.00;;;;;;;;;;5034546;28;20047;-70
2022/02/20 07:21:28;;;;;;;2.78;1.70;;;;;;;;;;5036955;28;20029;-70
2022/02/20 07:23:55;;;;;;;2.95;1.60;;;;;;;;;;5028861;28;20092;-72
2022/02/20 07:26:21;;;;;;;3.45;2.10;;;;;;;;;;5032188;28;20025;-70
2022/02/20 07:28:47;;;;;;;3.28;1.83;;;;;;;;;;5028237;28;20388;-71
2022/02/20 07:31:14;;;;;;;3.88;1.58;;;;;;;;;;5031609;28;20443;-70
2022/02/20 07:33:40;;;;;;;2.97;1.63;;;;;;;;;;5028191;28;20037;-70
2022/02/20 07:36:06;;;;;;;3.15;2.03;;;;;;;;;;5029924;28;20508;-71
2022/02/20 07:38:32;;;;;;;4.38;1.83;;;;;;;;;;5031417;28;20037;-70
2022/02/20 07:40:59;;;;;;;2.92;1.70;;;;;;;;;;5032349;28;20105;-71
2022/02/20 07:43:25;;;;;;;5.45;1.75;;;;;;;;;;5030560;28;20043;-70
2022/02/20 07:45:52;;;;;;;7.25;1.98;;;;;;;;;;5031384;28;20390;-71
2022/02/20 07:48:18;;;;;;;3.95;2.08;;;;;;;;;;5032780;28;20040;-70
2022/02/20 07:50:44;;;;;;;4.03;2.10;;;;;;;;;;5038335;28;20548;-71
2022/02/20 07:53:11;;;;;;;3.58;2.40;;;;;;;;;;5035530;28;20075;-72
2022/02/20 07:55:38;;;;;;;4.70;2.35;;;;;;;;;;5035506;28;20124;-72
2022/02/20 07:58:07;;;;;;;3.63;2.10;;;;;;;;;;5039184;28;20017;-72
2022/02/20 08:00:33;;;;;;;17.05;10.45;;;;;;;;;;5036715;28;20033;-72
2022/02/20 08:03:00;;;;;;;26.70;18.00;;;;;;;;;;5032505;28;20043;-69
2022/02/20 08:05:26;;;;;;;29.45;21.80;;;;;;;;;;5020185;28;20908;-70
2022/02/20 08:07:53;;;;;;;25.90;18.52;;;;;;;;;;5034346;28;20511;-70
2022/02/20 08:10:19;;;;;;;12.38;9.20;;;;;;;;;;5034466;28;20700;-70
2022/02/20 08:12:45;;;;;;;12.52;6.38;;;;;;;;;;5035073;28;20055;-70
2022/02/20 08:15:11;;;;;;;10.95;4.68;;;;;;;;;;5037498;28;20674;-71
2022/02/20 08:17:44;;;;;;;10.35;4.15;;;;;;;;;;5038116;28;20373;-70
2022/02/20 08:20:11;;;;;;;8.82;3.67;;;;;;;;;;5027822;28;20579;-70
2022/02/20 08:22:37;;;;;;;23.23;3.72;;;;;;;;;;5030235;28;20073;-70
2022/02/20 08:25:04;;;;;;;10.10;3.65;;;;;;;;;;5030343;28;20037;-71
2022/02/20 08:27:33;;;;;;;6.57;3.03;;;;;;;;;;5038630;28;20040;-70
2022/02/20 08:29:59;;;;;;;7.07;3.35;;;;;;;;;;5034994;28;20032;-69
2022/02/20 08:32:25;;;;;;;5.57;3.60;;;;;;;;;;5041809;28;20033;-70
2022/02/20 08:34:51;;;;;;;9.90;4.10;;;;;;;;;;5038506;28;20094;-70
2022/02/20 08:37:17;;;;;;;6.88;3.42;;;;;;;;;;5038735;28;20057;-71
2022/02/20 08:39:43;;;;;;;5.28;3.05;;;;;;;;;;5035437;28;20477;-69
2022/02/20 08:42:10;;;;;;;8.50;3.05;;;;;;;;;;5035449;28;20052;-72
2022/02/20 08:44:36;;;;;;;5.90;2.38;;;;;;;;;;5037378;28;20033;-68
2022/02/20 08:47:03;;;;;;;5.75;2.25;;;;;;;;;;5039619;28;20030;-70
2022/02/20 08:49:30;;;;;;;5.50;2.30;;;;;;;;;;5031890;28;20037;-70
2022/02/20 08:51:56;;;;;;;5.72;2.38;;;;;;;;;;5033623;28;20036;-69
2022/02/20 08:54:22;;;;;;;5.47;2.50;;;;;;;;;;5036559;28;20061;-69
2022/02/20 08:56:49;;;;;;;10.43;2.35;;;;;;;;;;5041091;28;20029;-69
2022/02/20 08:59:15;;;;;;;4.15;2.35;;;;;;;;;;5033322;28;20033;-70
2022/02/20 09:01:41;;;;;;;7.38;2.80;;;;;;;;;;5031224;28;20025;-70
2022/02/20 09:04:07;;;;;;;4.85;2.40;;;;;;;;;;5040828;28;20500;-71
2022/02/20 09:06:34;;;;;;;7.22;2.70;;;;;;;;;;5043689;28;20495;-69
2022/02/20 09:09:00;;;;;;;8.00;3.30;;;;;;;;;;5043536;28;20040;-70
2022/02/20 09:11:30;;;;;;;7.88;3.30;;;;;;;;;;5043373;28;20033;-71
2022/02/20 09:13:56;;;;;;;11.25;3.92;;;;;;;;;;5040824;28;20880;-69
2022/02/20 09:16:22;;;;;;;7.45;3.20;;;;;;;;;;5043650;28;20029;-70
2022/02/20 09:18:48;;;;;;;6.47;3.15;;;;;;;;;;5043574;28;20489;-69
2022/02/20 09:21:15;;;;;;;7.20;3.05;;;;;;;;;;5043192;28;20112;-69
2022/02/20 09:23:41;;;;;;;7.20;3.17;;;;;;;;;;5043170;28;20489;-69
2022/02/20 09:26:07;;;;;;;7.60;3.53;;;;;;;;;;5035896;28;20037;-69
2022/02/20 09:28:34;;;;;;;8.32;3.92;;;;;;;;;;5034493;28;20017;-70
2022/02/20 09:31:01;;;;;;;9.40;4.75;;;;;;;;;;5034476;28;20036;-69
2022/02/20 09:33:27;;;;;;;6.28;3.85;;;;;;;;;;5035827;28;20579;-69
2022/02/20 09:35:53;;;;;;;11.15;4.30;;;;;;;;;;5033434;28;20028;-69
2022/02/20 09:38:20;;;;;;;12.23;4.03;;;;;;;;;;5025136;28;20035;-69
2022/02/20 09:40:46;;;;;;;5.57;3.83;;;;;;;;;;5032904;28;20112;-70
2022/02/20 09:43:13;;;;;;;9.68;4.20;;;;;;;;;;5040467;28;20040;-69
2022/02/20 09:45:40;;;;;;;6.78;4.22;;;;;;;;;;5030921;28;20025;-69
2022/02/20 09:48:06;;;;;;;10.35;5.25;;;;;;;;;;5029856;28;20026;-69
2022/02/20 09:50:32;;;;;;;8.77;5.00;;;;;;;;;;5034016;28;20040;-69
2022/02/20 09:52:58;;;;;;;9.20;5.22;;;;;;;;;;5035400;28;20021;-69
2022/02/20 09:55:24;;;;;;;11.05;5.80;;;;;;;;;;5034043;28;20018;-69
2022/02/20 09:57:51;;;;;;;10.00;5.90;;;;;;;;;;5035311;28;20025;-68
2022/02/20 10:00:17;;;;;;;13.52;6.63;;;;;;;;;;5032296;28;20471;-69
2022/02/20 10:02:44;;;;;;;9.43;5.22;;;;;;;;;;5013932;28;20579;-69
2022/02/20 10:05:17;;;;;;;9.25;6.20;;;;;;;;;;5032810;28;20448;-70
2022/02/20 10:07:44;;;;;;;16.30;7.65;;;;;;;;;;5035554;28;20039;-69
2022/02/20 10:10:21;;;;;;;12.77;7.50;;;;;;;;;;5035051;28;20029;-69
2022/02/20 10:12:55;;;;;;;14.85;8.90;;;;;;;;;;5013101;28;20416;-69
2022/02/20 10:15:39;;;;;;;13.15;9.00;;;;;;;;;;5013942;28;20033;-69
2022/02/20 10:18:23;;;;;;;13.50;8.52;;;;;;;;;;5032392;28;20184;-69
2022/02/20 10:20:59;;;;;;;22.00;9.32;;;;;;;;;;5031924;28;20494;-70
2022/02/20 10:23:25;;;;;;;18.08;8.55;;;;;;;;;;5033368;28;20037;-68
2022/02/20 10:25:51;;;;;;;14.50;8.73;;;;;;;;;;5037600;28;20319;-69
2022/02/20 10:28:18;;;;;;;15.40;8.38;;;;;;;;;;5036130;28;20025;-69
2022/02/20 10:30:44;;;;;;;9.68;7.28;;;;;;;;;;5021195;28;20121;-69
2022/02/20 10:33:22;;;;;;;15.55;8.82;;;;;;;;;;5039104;28;20036;-70
2022/02/20 10:35:51;;;;;;;13.50;7.82;;;;;;;;;;5035965;28;20590;-68
2022/02/20 10:38:18;;;;;;;13.70;8.45;;;;;;;;;;5036013;28;20030;-68
2022/02/20 10:40:44;;;;;;;11.52;8.38;;;;;;;;;;5037596;28;20870;-69
2022/02/20 10:43:24;;;;;;;12.98;7.80;;;;;;;;;;5039947;28;20044;-69
2022/02/20 10:45:50;;;;;;;13.25;7.93;;;;;;;;;;5035245;28;20079;-69
2022/02/20 10:48:20;;;;;;;18.77;10.63;;;;;;;;;;5035680;28;20022;-70
2022/02/20 10:50:56;;;;;;;12.40;8.45;;;;;;;;;;5019773;28;20305;-69
2022/02/20 10:53:23;;;;;;;13.48;8.77;;;;;;;;;;5037531;28;20021;-69
2022/02/20 10:55:51;;;;;;;13.52;8.57;;;;;;;;;;5031920;28;20086;-69
2022/02/20 10:58:24;;;;;;;11.73;8.20;;;;;;;;;;5036023;28;20047;-68
2022/02/20 11:01:01;;;;;;;13.82;7.82;;;;;;;;;;5032019;28;20087;-69
2022/02/20 11:03:30;;;;;;;19.63;10.70;;;;;;;;;;5032220;28;20041;-69
2022/02/20 11:05:58;;;;;;;21.45;11.40;;;;;;;;;;5035502;28;20024;-69
2022/02/20 11:08:25;;;;;;;15.75;10.52;;;;;;;;;;5017544;28;20058;-69
2022/02/20 11:10:52;;;;;;;15.38;10.75;;;;;;;;;;5034346;28;20025;-69
2022/02/20 11:13:19;;;;;;;13.98;9.75;;;;;;;;;;5036039;28;20052;-68
2022/02/20 11:15:46;;;;;;;13.27;9.32;;;;;;;;;;5032949;28;20690;-69
2022/02/20 11:18:16;;;;;;;12.90;8.25;;;;;;;;;;5032277;28;20036;-69
2022/02/20 11:20:46;;;;;;;12.45;9.20;;;;;;;;;;5040736;28;20025;-69
2022/02/20 11:23:15;;;;;;;12.77;9.35;;;;;;;;;;5040972;28;20025;-69
2022/02/20 11:25:43;;;;;;;14.70;9.35;;;;;;;;;;5033689;28;20044;-69
2022/02/20 11:28:09;;;;;;;15.00;9.90;;;;;;;;;;5031854;28;20138;-70
2022/02/20 11:30:36;;;;;;;15.73;9.52;;;;;;;;;;5029984;28;20061;-70
2022/02/20 11:33:04;;;;;;;15.52;9.38;;;;;;;;;;5035084;28;20060;-69
2022/02/20 11:35:31;;;;;;;14.60;9.35;;;;;;;;;;5033291;28;20926;-69
2022/02/20 11:37:58;;;;;;;15.70;9.05;;;;;;;;;;5034192;28;20036;-68
2022/02/20 11:40:29;;;;;;;15.73;9.32;;;;;;;;;;5032179;28;20032;-69
2022/02/20 11:43:01;;;;;;;14.70;8.82;;;;;;;;;;5030229;28;20108;-69
2022/02/20 11:45:27;;;;;;;14.30;8.80;;;;;;;;;;5031767;28;20037;-70
2022/02/20 11:48:10;;;;;;;16.35;9.40;;;;;;;;;;5033372;28;20524;-70
2022/02/20 11:50:45;;;;;;;18.30;10.55;;;;;;;;;;5029883;28;20029;-70
2022/02/20 11:53:12;;;;;;;14.80;9.35;;;;;;;;;;5031548;28;20021;-69
2022/02/20 11:55:38;;;;;;;19.48;8.95;;;;;;;;;;5031337;28;20035;-69
2022/02/20 11:58:10;;;;;;;48.65;30.67;;;;;;;;;;5029966;28;20033;-69
2022/02/20 12:00:37;;;;;;;54.80;36.72;;;;;;;;;;5031487;28;20033;-69
2022/02/20 12:03:03;;;;;;;24.23;15.88;;;;;;;;;;5035836;28;20055;-69
2022/02/20 12:05:30;;;;;;;17.13;9.55;;;;;;;;;;5039144;28;20037;-69
2022/02/20 12:07:56;;;;;;;15.65;8.73;;;;;;;;;;5036437;28;20021;-70
2022/02/20 12:10:28;;;;;;;17.30;8.13;;;;;;;;;;5039078;28;20029;-69
2022/02/20 12:12:59;;;;;;;15.45;8.18;;;;;;;;;;5035134;28;20021;-70
2022/02/20 12:15:29;;;;;;;13.63;8.15;;;;;;;;;;5035942;28;20036;-70
2022/02/20 12:17:58;;;;;;;10.60;7.82;;;;;;;;;;5046513;28;20028;-69
2022/02/20 12:20:46;;;;;;;14.40;8.10;;;;;;;;;;5035403;28;20022;-71
2022/02/20 12:23:25;;;;;;;12.03;6.60;;;;;;;;;;5043604;28;20017;-70
2022/02/20 12:25:51;;;;;;;12.23;6.43;;;;;;;;;;5036954;28;20131;-68
2022/02/20 12:28:31;;;;;;;14.07;7.32;;;;;;;;;;5041931;28;20956;-70
2022/02/20 12:30:57;;;;;;;10.23;6.18;;;;;;;;;;5032407;28;20581;-70
2022/02/20 12:33:30;;;;;;;13.93;5.38;;;;;;;;;;5037967;28;20098;-71
2022/02/20 12:35:57;;;;;;;7.57;4.68;;;;;;;;;;5037815;28;20025;-69
2022/02/20 12:38:23;;;;;;;11.40;5.30;;;;;;;;;;5032127;28;20024;-70
2022/02/20 12:40:50;;;;;;;16.88;7.18;;;;;;;;;;5035100;28;20102;-69
2022/02/20 12:43:17;;;;;;;13.05;7.10;;;;;;;;;;5036656;28;20332;-70
2022/02/20 12:45:45;;;;;;;12.13;7.63;;;;;;;;;;5031450;28;20040;-70
2022/02/20 12:48:12;;;;;;;12.75;6.63;;;;;;;;;;5029803;28;20021;-70
2022/02/20 12:50:43;;;;;;;8.02;4.75;;;;;;;;;;5028072;28;20033;-70
2022/02/20 12:53:09;;;;;;;8.02;5.47;;;;;;;;;;5026648;28;20060;-70
2022/02/20 12:55:36;;;;;;;12.90;6.85;;;;;;;;;;5030556;28;20059;-70
2022/02/20 12:58:04;;;;;;;10.93;6.35;;;;;;;;;;5030102;28;20083;-71
2022/02/20 13:00:38;;;;;;;15.65;7.40;;;;;;;;;;5033040;28;20645;-70
2022/02/20 13:03:10;;;;;;;9.60;5.60;;;;;;;;;;5016913;28;20033;-70
2022/02/20 13:05:37;;;;;;;10.70;5.63;;;;;;;;;;5033207;28;20033;-71
2022/02/20 13:08:03;;;;;;;15.63;6.70;;;;;;;;;;4999340;28;20519;-72
2022/02/20 13:10:34;;;;;;;9.77;4.90;;;;;;;;;;5031925;28;20028;-70
2022/02/20 13:13:09;;;;;;;12.57;5.80;;;;;;;;;;5029612;28;20060;-70
2022/02/20 13:15:39;;;;;;;9.68;6.00;;;;;;;;;;5033344;28;20515;-71
2022/02/20 13:18:12;;;;;;;11.55;6.18;;;;;;;;;;5028123;28;20037;-69
2022/02/20 13:20:46;;;;;;;11.18;5.88;;;;;;;;;;5038847;28;20801;-70
2022/02/20 13:23:16;;;;;;;7.82;5.30;;;;;;;;;;5028771;28;20535;-70
2022/02/20 13:25:43;;;;;;;13.65;5.97;;;;;;;;;;5027300;28;20136;-71
2022/02/20 13:28:14;;;;;;;17.90;7.45;;;;;;;;;;5029173;28;20021;-70
2022/02/20 13:30:40;;;;;;;13.10;6.80;;;;;;;;;;5028873;28;20190;-70
2022/02/20 13:33:17;;;;;;;14.55;6.68;;;;;;;;;;5029933;28;20460;-71
2022/02/20 13:35:44;;;;;;;13.63;6.80;;;;;;;;;;5012574;28;20112;-70
2022/02/20 13:38:15;;;;;;;10.98;6.47;;;;;;;;;;5032700;28;20035;-71
2022/02/20 13:40:43;;;;;;;14.00;6.80;;;;;;;;;;5029755;28;20036;-71
2022/02/20 13:43:10;;;;;;;21.17;7.97;;;;;;;;;;5034250;28;20041;-71
2022/02/20 13:45:39;;;;;;;11.55;7.40;;;;;;;;;;5036922;28;20188;-71
2022/02/20 13:48:23;;;;;;;19.88;6.65;;;;;;;;;;5030656;28;20025;-70
2022/02/20 13:50:50;;;;;;;11.07;5.45;;;;;;;;;;5034103;28;20028;-72
2022/02/20 13:53:16;;;;;;;16.70;7.70;;;;;;;;;;5035576;28;20803;-74
2022/02/20 13:55:53;;;;;;;11.68;6.28;;;;;;;;;;5020144;28;20098;-70
2022/02/20 13:58:24;;;;;;;26.30;7.00;;;;;;;;;;5038923;28;20481;-70
2022/02/20 14:00:51;;;;;;;10.10;6.10;;;;;;;;;;5040542;28;20098;-70
2022/02/20 14:03:18;;;;;;;12.05;5.72;;;;;;;;;;5040607;28;20102;-70
2022/02/20 14:05:46;;;;;;;21.88;8.52;;;;;;;;;;5036198;28;20606;-70
2022/02/20 14:08:17;;;;;;;10.40;6.32;;;;;;;;;;5019065;28;20036;-71
2022/02/20 14:10:43;;;;;;;;;;;;;;;;;;5039308;28;20037;-70
2022/02/20 14:13:16;;;;;;;12.43;6.57;;;;;;;;;;5041979;28;20020;-70
2022/02/20 14:15:43;;;;;;;11.68;6.90;;;;;;;;;;5041630;28;20127;-70
2022/02/20 14:18:09;;;;;;;37.55;8.52;;;;;;;;;;5032954;28;20103;-71
2022/02/20 14:20:36;;;;;;;27.63;11.85;;;;;;;;;;5038640;28;20024;-70
2022/02/20 14:23:13;;;;;;;24.15;12.48;;;;;;;;;;5028129;28;20037;-69
2022/02/20 14:25:40;;;;;;;21.20;10.88;;;;;;;;;;5040089;28;20272;-70
2022/02/20 14:28:06;;;;;;;32.40;12.02;;;;;;;;;;5030920;28;20033;-71
2022/02/20 14:30:37;;;;;;;24.70;10.93;;;;;;;;;;5034069;28;20105;-71
2022/02/20 14:33:11;;;;;;;19.73;10.60;;;;;;;;;;5036729;28;20059;-71
2022/02/20 14:35:38;;;;;;;21.35;11.55;;;;;;;;;;5031543;28;20041;-70
2022/02/20 14:38:05;;;;;;;19.48;9.35;;;;;;;;;;5039261;28;20029;-70
2022/02/20 14:40:32;;;;;;;18.33;9.48;;;;;;;;;;5033332;28;20060;-70